CEB505 RPVD-RPVE
Flight info
| Callsign | CEB505 |
|---|---|
| Flight time | 0h 43m |
| Altitude | 16000 |
| Route | NANAS6R NANAS B472 IOO TR14 KLO KLO7A |
| Aircraft | A320/M-SDE3FGHIRWY/LB1 |
Departure
| Time | 2026-05-05 12:57 |
|---|---|
| Airport | Sibulan Airport (RPVD) |
Arrival
| Time | 2026-05-05 13:40 |
|---|---|
| Airport | Godofredo P. Ramos Airport (RPVE) |
| Time | Latitude | Longitude | Altitude | Speed | Heading |
|---|---|---|---|---|---|
| 2026-05-05 12:19 | 9.33326 | 123.29633 | 65 ft | 0 kts | 148° |
| 2026-05-05 12:46 | 9.33325 | 123.29633 | 63 ft | 0 kts | 148° |
| 2026-05-05 12:46 | 9.33323 | 123.29634 | 63 ft | 0 kts | 150° |
| 2026-05-05 12:48 | 9.33321 | 123.29635 | 63 ft | 0 kts | 151° |
| 2026-05-05 12:51 | 9.33320 | 123.29636 | 63 ft | 0 kts | 126° |
| 2026-05-05 12:51 | 9.33320 | 123.29639 | 63 ft | 0 kts | 85° |
| 2026-05-05 12:51 | 9.33323 | 123.29641 | 63 ft | 0 kts | 32° |
| 2026-05-05 12:52 | 9.33326 | 123.29639 | 63 ft | 0 kts | 326° |
| 2026-05-05 12:52 | 9.33331 | 123.29630 | 63 ft | 2 kts | 297° |
| 2026-05-05 12:52 | 9.33337 | 123.29618 | 63 ft | 3 kts | 297° |
| 2026-05-05 12:52 | 9.33352 | 123.29583 | 63 ft | 4 kts | 290° |
| 2026-05-05 12:53 | 9.33368 | 123.29549 | 63 ft | 5 kts | 304° |
| 2026-05-05 12:53 | 9.33398 | 123.29514 | 63 ft | 7 kts | 313° |
| 2026-05-05 12:53 | 9.33429 | 123.29485 | 63 ft | 4 kts | 328° |
| 2026-05-05 12:53 | 9.33456 | 123.29497 | 63 ft | 5 kts | 75° |
| 2026-05-05 12:54 | 9.33457 | 123.29520 | 63 ft | 2 kts | 91° |
| 2026-05-05 12:54 | 9.33456 | 123.29527 | 63 ft | 0 kts | 91° |
| 2026-05-05 12:56 | 9.33456 | 123.29530 | 63 ft | 1 kts | 91° |
| 2026-05-05 12:56 | 9.33448 | 123.29678 | 63 ft | 57 kts | 93° |
| 2026-05-05 12:56 | 9.33412 | 123.30340 | 63 ft | 127 kts | 94° |
| 2026-05-05 12:57 | 9.33348 | 123.31377 | 348 ft | 152 kts | 94° |
| 2026-05-05 12:57 | 9.33284 | 123.32407 | 1003 ft | 146 kts | 93° |
| 2026-05-05 12:57 | 9.33231 | 123.33428 | 1569 ft | 147 kts | 93° |
| 2026-05-05 12:57 | 9.33178 | 123.34467 | 1972 ft | 152 kts | 93° |
| 2026-05-05 12:58 | 9.33117 | 123.35577 | 2230 ft | 166 kts | 93° |
| 2026-05-05 12:58 | 9.33049 | 123.36800 | 2529 ft | 181 kts | 92° |
| 2026-05-05 12:58 | 9.32976 | 123.38123 | 2830 ft | 196 kts | 92° |
| 2026-05-05 12:58 | 9.32892 | 123.39565 | 3131 ft | 213 kts | 94° |
| 2026-05-05 12:59 | 9.32399 | 123.41052 | 3353 ft | 237 kts | 126° |
| 2026-05-05 12:59 | 9.31065 | 123.42111 | 3695 ft | 258 kts | 159° |
| 2026-05-05 12:59 | 9.29234 | 123.42234 | 4231 ft | 270 kts | 194° |
| 2026-05-05 13:00 | 9.26777 | 123.39537 | 5532 ft | 279 kts | 259° |
| 2026-05-05 13:00 | 9.26872 | 123.37556 | 5969 ft | 286 kts | 291° |
| 2026-05-05 13:01 | 9.31273 | 123.33541 | 7837 ft | 293 kts | 326° |
| 2026-05-05 13:01 | 9.32960 | 123.32323 | 8464 ft | 296 kts | 325° |
| 2026-05-05 13:01 | 9.34640 | 123.31101 | 9071 ft | 299 kts | 325° |
| 2026-05-05 13:01 | 9.36339 | 123.29861 | 9655 ft | 302 kts | 325° |
| 2026-05-05 13:02 | 9.38048 | 123.28610 | 10218 ft | 305 kts | 324° |
| 2026-05-05 13:02 | 9.39822 | 123.27309 | 10556 ft | 317 kts | 324° |
| 2026-05-05 13:02 | 9.41647 | 123.25971 | 10814 ft | 331 kts | 324° |
| 2026-05-05 13:02 | 9.43555 | 123.24573 | 11064 ft | 345 kts | 324° |
| 2026-05-05 13:03 | 9.45559 | 123.23105 | 11306 ft | 359 kts | 324° |
| 2026-05-05 13:03 | 9.47632 | 123.21584 | 11644 ft | 368 kts | 324° |
| 2026-05-05 13:03 | 9.49658 | 123.20099 | 12125 ft | 371 kts | 324° |
| 2026-05-05 13:03 | 9.51756 | 123.18559 | 12629 ft | 372 kts | 324° |
| 2026-05-05 13:04 | 9.53895 | 123.16990 | 13109 ft | 375 kts | 324° |
| 2026-05-05 13:04 | 9.56016 | 123.15434 | 13541 ft | 376 kts | 324° |
| 2026-05-05 13:04 | 9.58146 | 123.13870 | 13953 ft | 380 kts | 324° |
| 2026-05-05 13:04 | 9.60331 | 123.12268 | 14399 ft | 383 kts | 324° |
| 2026-05-05 13:05 | 9.62502 | 123.10675 | 14831 ft | 386 kts | 324° |
| 2026-05-05 13:05 | 9.64721 | 123.09046 | 15256 ft | 388 kts | 324° |
| 2026-05-05 13:05 | 9.66922 | 123.07430 | 15656 ft | 391 kts | 325° |
| 2026-05-05 13:05 | 9.69159 | 123.05789 | 15911 ft | 393 kts | 325° |
| 2026-05-05 13:06 | 9.71419 | 123.04133 | 16001 ft | 393 kts | 325° |
| 2026-05-05 13:06 | 9.73636 | 123.02506 | 16039 ft | 393 kts | 324° |
| 2026-05-05 13:06 | 9.75873 | 123.00863 | 16046 ft | 392 kts | 324° |
| 2026-05-05 13:06 | 9.78150 | 122.99292 | 15995 ft | 392 kts | 328° |
| 2026-05-05 13:07 | 9.80549 | 122.97875 | 15919 ft | 391 kts | 333° |
| 2026-05-05 13:07 | 9.82982 | 122.96655 | 15889 ft | 390 kts | 335° |
| 2026-05-05 13:07 | 9.85483 | 122.95475 | 15877 ft | 390 kts | 336° |
| 2026-05-05 13:07 | 9.87946 | 122.94320 | 15875 ft | 390 kts | 336° |
| 2026-05-05 13:08 | 9.90436 | 122.93152 | 15879 ft | 390 kts | 336° |
| 2026-05-05 13:08 | 9.92907 | 122.91991 | 15911 ft | 390 kts | 336° |
| 2026-05-05 13:08 | 9.95368 | 122.90836 | 15927 ft | 390 kts | 336° |
| 2026-05-05 13:08 | 9.97843 | 122.89674 | 15932 ft | 390 kts | 336° |
| 2026-05-05 13:09 | 10.00347 | 122.88499 | 15932 ft | 390 kts | 336° |
| 2026-05-05 13:09 | 10.02804 | 122.87344 | 15929 ft | 390 kts | 336° |
| 2026-05-05 13:09 | 10.05290 | 122.86173 | 15923 ft | 390 kts | 336° |
| 2026-05-05 13:09 | 10.07779 | 122.85001 | 15917 ft | 389 kts | 336° |
| 2026-05-05 13:10 | 10.10259 | 122.83832 | 15900 ft | 390 kts | 336° |
| 2026-05-05 13:10 | 10.12739 | 122.82664 | 15889 ft | 390 kts | 336° |
| 2026-05-05 13:10 | 10.15240 | 122.81486 | 15881 ft | 389 kts | 336° |
| 2026-05-05 13:10 | 10.17753 | 122.80302 | 15875 ft | 390 kts | 336° |
| 2026-05-05 13:11 | 10.20216 | 122.79144 | 15880 ft | 390 kts | 336° |
| 2026-05-05 13:11 | 10.22680 | 122.77983 | 15881 ft | 389 kts | 336° |
| 2026-05-05 13:11 | 10.25171 | 122.76810 | 15881 ft | 390 kts | 336° |
| 2026-05-05 13:11 | 10.27615 | 122.75658 | 15879 ft | 390 kts | 336° |
| 2026-05-05 13:12 | 10.30104 | 122.74485 | 15879 ft | 390 kts | 336° |
| 2026-05-05 13:12 | 10.32586 | 122.73311 | 15879 ft | 390 kts | 336° |
| 2026-05-05 13:12 | 10.35038 | 122.72150 | 15879 ft | 389 kts | 336° |
| 2026-05-05 13:12 | 10.37523 | 122.70978 | 15879 ft | 389 kts | 336° |
| 2026-05-05 13:13 | 10.39987 | 122.69817 | 15879 ft | 389 kts | 336° |
| 2026-05-05 13:13 | 10.42477 | 122.68645 | 15879 ft | 389 kts | 336° |
| 2026-05-05 13:13 | 10.44921 | 122.67492 | 15878 ft | 390 kts | 336° |
| 2026-05-05 13:13 | 10.47396 | 122.66324 | 15877 ft | 389 kts | 336° |
| 2026-05-05 13:14 | 10.49873 | 122.65154 | 15877 ft | 389 kts | 336° |
| 2026-05-05 13:14 | 10.52350 | 122.63986 | 15877 ft | 389 kts | 336° |
| 2026-05-05 13:14 | 10.54837 | 122.62812 | 15878 ft | 389 kts | 336° |
| 2026-05-05 13:14 | 10.57318 | 122.61640 | 15878 ft | 389 kts | 336° |
| 2026-05-05 13:15 | 10.59780 | 122.60476 | 15880 ft | 389 kts | 336° |
| 2026-05-05 13:15 | 10.62246 | 122.59310 | 15882 ft | 389 kts | 336° |
| 2026-05-05 13:15 | 10.64724 | 122.58137 | 15885 ft | 389 kts | 336° |
| 2026-05-05 13:15 | 10.67222 | 122.56956 | 15888 ft | 389 kts | 336° |
| 2026-05-05 13:16 | 10.69690 | 122.55786 | 15890 ft | 389 kts | 336° |
| 2026-05-05 13:16 | 10.72143 | 122.54624 | 15891 ft | 389 kts | 336° |
| 2026-05-05 13:16 | 10.74641 | 122.53441 | 15892 ft | 389 kts | 336° |
| 2026-05-05 13:16 | 10.77102 | 122.52276 | 15893 ft | 389 kts | 336° |
| 2026-05-05 13:17 | 10.79573 | 122.51105 | 15893 ft | 389 kts | 336° |
| 2026-05-05 13:17 | 10.82069 | 122.50014 | 15894 ft | 389 kts | 341° |
| 2026-05-05 13:17 | 10.84656 | 122.49211 | 15895 ft | 388 kts | 347° |
| 2026-05-05 13:17 | 10.87329 | 122.48709 | 15898 ft | 387 kts | 353° |
| 2026-05-05 13:18 | 10.90040 | 122.48347 | 15899 ft | 387 kts | 354° |
| 2026-05-05 13:18 | 10.92709 | 122.48017 | 15901 ft | 387 kts | 354° |
| 2026-05-05 13:18 | 10.95415 | 122.47683 | 15904 ft | 387 kts | 354° |
| 2026-05-05 13:18 | 10.98114 | 122.47342 | 15906 ft | 387 kts | 354° |
| 2026-05-05 13:19 | 11.00841 | 122.46994 | 15910 ft | 387 kts | 354° |
| 2026-05-05 13:19 | 11.03536 | 122.46651 | 15914 ft | 387 kts | 354° |
| 2026-05-05 13:19 | 11.06218 | 122.46309 | 15916 ft | 387 kts | 354° |
| 2026-05-05 13:19 | 11.08930 | 122.45963 | 15917 ft | 387 kts | 354° |
| 2026-05-05 13:20 | 11.11633 | 122.45616 | 15918 ft | 387 kts | 354° |
| 2026-05-05 13:20 | 11.14343 | 122.45270 | 15918 ft | 387 kts | 354° |
| 2026-05-05 13:20 | 11.17006 | 122.44929 | 15919 ft | 388 kts | 354° |
| 2026-05-05 13:20 | 11.19740 | 122.44579 | 15919 ft | 388 kts | 354° |
| 2026-05-05 13:21 | 11.22407 | 122.44237 | 15920 ft | 388 kts | 354° |
| 2026-05-05 13:21 | 11.25128 | 122.43888 | 15919 ft | 388 kts | 354° |
| 2026-05-05 13:21 | 11.27792 | 122.43546 | 15920 ft | 388 kts | 354° |
| 2026-05-05 13:21 | 11.30502 | 122.43198 | 15920 ft | 387 kts | 354° |
| 2026-05-05 13:22 | 11.33181 | 122.42854 | 15920 ft | 388 kts | 354° |
| 2026-05-05 13:22 | 11.35873 | 122.42508 | 15921 ft | 388 kts | 354° |
| 2026-05-05 13:22 | 11.38569 | 122.42159 | 15921 ft | 388 kts | 354° |
| 2026-05-05 13:22 | 11.41262 | 122.41811 | 15922 ft | 388 kts | 354° |
| 2026-05-05 13:23 | 11.43953 | 122.41464 | 15922 ft | 388 kts | 353° |
| 2026-05-05 13:23 | 11.46599 | 122.40765 | 15906 ft | 390 kts | 335° |
| 2026-05-05 13:23 | 11.48826 | 122.39207 | 15924 ft | 392 kts | 321° |
| 2026-05-05 13:23 | 11.50895 | 122.37358 | 15925 ft | 391 kts | 319° |
| 2026-05-05 13:24 | 11.52946 | 122.35497 | 15923 ft | 392 kts | 319° |
| 2026-05-05 13:24 | 11.54983 | 122.33691 | 15923 ft | 391 kts | 320° |
| 2026-05-05 13:24 | 11.57089 | 122.31873 | 15924 ft | 391 kts | 320° |
| 2026-05-05 13:24 | 11.59185 | 122.30093 | 15924 ft | 391 kts | 321° |
| 2026-05-05 13:25 | 11.65509 | 122.24808 | 15303 ft | 387 kts | 321° |
| 2026-05-05 13:25 | 11.67602 | 122.23067 | 15083 ft | 385 kts | 321° |
| 2026-05-05 13:26 | 11.69690 | 122.21330 | 14826 ft | 384 kts | 321° |
| 2026-05-05 13:26 | 11.71757 | 122.19608 | 14510 ft | 382 kts | 321° |
| 2026-05-05 13:26 | 11.73795 | 122.17913 | 14083 ft | 380 kts | 321° |
| 2026-05-05 13:26 | 11.75863 | 122.16195 | 13576 ft | 378 kts | 321° |
| 2026-05-05 13:27 | 11.77908 | 122.14495 | 13033 ft | 375 kts | 321° |
| 2026-05-05 13:27 | 11.79957 | 122.12791 | 12488 ft | 373 kts | 321° |
| 2026-05-05 13:27 | 11.81956 | 122.11127 | 11958 ft | 370 kts | 321° |
| 2026-05-05 13:27 | 11.83960 | 122.09459 | 11426 ft | 367 kts | 321° |
| 2026-05-05 13:28 | 11.85948 | 122.07803 | 10901 ft | 363 kts | 321° |
| 2026-05-05 13:28 | 11.87886 | 122.06189 | 10588 ft | 350 kts | 321° |
| 2026-05-05 13:28 | 11.89767 | 122.04621 | 10398 ft | 336 kts | 322° |
| 2026-05-05 13:28 | 11.91544 | 122.03139 | 10221 ft | 324 kts | 322° |
| 2026-05-05 13:29 | 11.93271 | 122.01698 | 10059 ft | 312 kts | 322° |
| 2026-05-05 13:29 | 11.94935 | 122.00310 | 9913 ft | 299 kts | 322° |
| 2026-05-05 13:29 | 11.96534 | 121.98978 | 9597 ft | 296 kts | 322° |
| 2026-05-05 13:29 | 11.98140 | 121.97642 | 9231 ft | 295 kts | 322° |
| 2026-05-05 13:30 | 11.99726 | 121.96322 | 8875 ft | 293 kts | 322° |
| 2026-05-05 13:30 | 12.01304 | 121.95007 | 8523 ft | 291 kts | 322° |
| 2026-05-05 13:30 | 12.02756 | 121.93536 | 8134 ft | 292 kts | 302° |
| 2026-05-05 13:30 | 12.03340 | 121.91594 | 7776 ft | 291 kts | 269° |
| 2026-05-05 13:31 | 12.02825 | 121.89619 | 7426 ft | 286 kts | 238° |
| 2026-05-05 13:31 | 12.01657 | 121.87982 | 7109 ft | 282 kts | 232° |
| 2026-05-05 13:31 | 12.00480 | 121.86398 | 6777 ft | 281 kts | 232° |
| 2026-05-05 13:31 | 11.99319 | 121.84781 | 6443 ft | 279 kts | 232° |
| 2026-05-05 13:32 | 11.98182 | 121.83167 | 6112 ft | 279 kts | 233° |
| 2026-05-05 13:32 | 11.97054 | 121.81543 | 5780 ft | 278 kts | 233° |
| 2026-05-05 13:32 | 11.95933 | 121.79919 | 5455 ft | 276 kts | 233° |
| 2026-05-05 13:32 | 11.94839 | 121.78329 | 5155 ft | 274 kts | 233° |
| 2026-05-05 13:33 | 11.93737 | 121.76728 | 4838 ft | 273 kts | 233° |
| 2026-05-05 13:33 | 11.92641 | 121.75145 | 4512 ft | 270 kts | 231° |
| 2026-05-05 13:33 | 11.91234 | 121.73898 | 4163 ft | 264 kts | 199° |
| 2026-05-05 13:33 | 11.89510 | 121.73715 | 4101 ft | 242 kts | 165° |
| 2026-05-05 13:34 | 11.88022 | 121.74346 | 4081 ft | 223 kts | 148° |
| 2026-05-05 13:34 | 11.86679 | 121.75102 | 4040 ft | 211 kts | 148° |
| 2026-05-05 13:34 | 11.85423 | 121.75797 | 4000 ft | 200 kts | 148° |
| 2026-05-05 13:34 | 11.84242 | 121.76534 | 3995 ft | 190 kts | 133° |
| 2026-05-05 13:35 | 11.83728 | 121.77676 | 3816 ft | 173 kts | 90° |
| 2026-05-05 13:35 | 11.84032 | 121.78825 | 3582 ft | 167 kts | 63° |
| 2026-05-05 13:35 | 11.84585 | 121.79854 | 3359 ft | 162 kts | 62° |
| 2026-05-05 13:35 | 11.85110 | 121.80843 | 3146 ft | 157 kts | 63° |
| 2026-05-05 13:36 | 11.85616 | 121.81816 | 2942 ft | 153 kts | 63° |
| 2026-05-05 13:36 | 11.86103 | 121.82768 | 2740 ft | 148 kts | 63° |
| 2026-05-05 13:36 | 11.86568 | 121.83684 | 2544 ft | 142 kts | 63° |
| 2026-05-05 13:36 | 11.87024 | 121.84586 | 2316 ft | 139 kts | 63° |
| 2026-05-05 13:37 | 11.87464 | 121.85458 | 2143 ft | 139 kts | 63° |
| 2026-05-05 13:37 | 11.87903 | 121.86330 | 1931 ft | 138 kts | 63° |
| 2026-05-05 13:37 | 11.88342 | 121.87202 | 1736 ft | 137 kts | 63° |
| 2026-05-05 13:37 | 11.88782 | 121.88078 | 1548 ft | 137 kts | 63° |
| 2026-05-05 13:38 | 11.89217 | 121.88944 | 1360 ft | 136 kts | 63° |
| 2026-05-05 13:38 | 11.89650 | 121.89805 | 1186 ft | 136 kts | 63° |
| 2026-05-05 13:38 | 11.90084 | 121.90667 | 1012 ft | 136 kts | 63° |
| 2026-05-05 13:38 | 11.90521 | 121.91534 | 820 ft | 135 kts | 63° |
| 2026-05-05 13:39 | 11.90951 | 121.92391 | 639 ft | 135 kts | 63° |
| 2026-05-05 13:39 | 11.91373 | 121.93243 | 414 ft | 135 kts | 64° |
| 2026-05-05 13:39 | 11.91794 | 121.94093 | 191 ft | 131 kts | 63° |
| 2026-05-05 13:39 | 11.92204 | 121.94902 | 54 ft | 126 kts | 64° |
| 2026-05-05 13:40 | 11.92552 | 121.95589 | 30 ft | 72 kts | 63° |
| 2026-05-05 13:40 | 11.92669 | 121.95822 | 30 ft | 19 kts | 63° |
| 2026-05-05 13:40 | 11.92731 | 121.95944 | 30 ft | 19 kts | 62° |
| 2026-05-05 13:40 | 11.92791 | 121.96066 | 30 ft | 18 kts | 63° |
| 2026-05-05 13:41 | 11.92849 | 121.96184 | 30 ft | 18 kts | 62° |
| 2026-05-05 13:41 | 11.92908 | 121.96299 | 30 ft | 15 kts | 63° |
| 2026-05-05 13:41 | 11.92953 | 121.96390 | 30 ft | 12 kts | 65° |
| 2026-05-05 13:41 | 11.92952 | 121.96444 | 30 ft | 7 kts | 119° |
| 2026-05-05 13:42 | 11.92910 | 121.96478 | 30 ft | 8 kts | 157° |
| 2026-05-05 13:42 | 11.92875 | 121.96496 | 30 ft | 4 kts | 151° |
| 2026-05-05 13:42 | 11.92842 | 121.96515 | 30 ft | 6 kts | 150° |
| 2026-05-05 13:42 | 11.92799 | 121.96521 | 30 ft | 6 kts | 210° |
| 2026-05-05 13:43 | 11.92772 | 121.96483 | 30 ft | 5 kts | 242° |
| 2026-05-05 13:43 | 11.92756 | 121.96452 | 30 ft | 4 kts | 242° |
| 2026-05-05 13:43 | 11.92741 | 121.96423 | 30 ft | 4 kts | 243° |
| 2026-05-05 13:43 | 11.92731 | 121.96410 | 30 ft | 1 kts | 202° |
| 2026-05-05 13:44 | 11.92719 | 121.96412 | 30 ft | 1 kts | 160° |
| 2026-05-05 13:44 | 11.92706 | 121.96417 | 30 ft | 1 kts | 155° |
| 2026-05-05 13:44 | 11.92694 | 121.96423 | 30 ft | 1 kts | 154° |
| 2026-05-05 13:44 | 11.92683 | 121.96429 | 30 ft | 0 kts | 154° |
| 2026-05-05 13:45 | 11.92681 | 121.96429 | 30 ft | 0 kts | 154° |